Time,TemperatureF,DewpointF,PressureIn,WindDirection,WindDirectionDegrees,WindSpeedMPH,WindSpeedGustMPH,Humidity,HourlyPrecipIn,Conditions,Clouds,dailyrainin,SoftwareType,DateUTC
2013-04-21 00:07:00,47.8,47.0,30.23,NW,317,0.0,1.0,97,0.00,,,0.00,weatherlink.com 1.10,2013-04-21 04:07:00,
2013-04-21 00:22:00,47.2,46.0,30.23,NW,317,0.0,0.0,96,0.00,,,0.00,weatherlink.com 1.10,2013-04-21 04:22:00,
2013-04-21 00:37:00,47.2,46.0,30.23,NW,318,0.0,0.0,97,0.00,,,0.00,weatherlink.com 1.10,2013-04-21 04:37:00,
2013-04-21 00:52:00,47.0,46.0,30.23,NW,317,0.0,0.0,97,0.00,,,0.00,weatherlink.com 1.10,2013-04-21 04:52:00,
2013-04-21 01:07:00,46.8,46.0,30.23,NW,317,0.0,0.0,97,0.00,,,0.00,weatherlink.com 1.10,2013-04-21 05:07:00,
2013-04-21 01:22:00,46.1,45.0,30.24,NW,317,0.0,0.0,97,0.00,,,0.00,weatherlink.com 1.10,2013-04-21 05:22:00,
2013-04-21 01:37:00,46.2,45.0,30.24,NW,317,0.0,0.0,97,0.00,,,0.00,weatherlink.com 1.10,2013-04-21 05:37:00,
2013-04-21 01:52:00,46.0,45.0,30.24,NW,317,0.0,0.0,97,0.00,,,0.00,weatherlink.com 1.10,2013-04-21 05:52:00,
2013-04-21 02:07:00,45.9,45.0,30.24,NW,317,0.0,1.0,97,0.00,,,0.00,weatherlink.com 1.10,2013-04-21 06:07:00,
2013-04-21 02:22:00,45.7,45.0,30.23,NW,318,0.0,0.0,97,0.00,,,0.00,weatherlink.com 1.10,2013-04-21 06:22:00,
2013-04-21 02:37:00,45.4,45.0,30.23,NW,317,0.0,0.0,97,0.00,,,0.00,weatherlink.com 1.10,2013-04-21 06:37:00,
2013-04-21 02:52:00,45.2,44.0,30.22,NW,317,0.0,0.0,97,0.00,,,0.00,weatherlink.com 1.10,2013-04-21 06:52:00,
2013-04-21 03:07:00,44.9,44.0,30.22,NW,317,0.0,0.0,97,0.00,,,0.00,weatherlink.com 1.10,2013-04-21 07:07:00,
2013-04-21 03:22:00,44.9,44.0,30.22,NW,317,0.0,0.0,97,0.00,,,0.00,weatherlink.com 1.10,2013-04-21 07:22:00,
2013-04-21 03:37:00,44.5,44.0,30.22,NW,317,0.0,0.0,97,0.00,,,0.00,weatherlink.com 1.10,2013-04-21 07:37:00,
2013-04-21 03:52:00,44.4,44.0,30.23,NW,317,0.0,0.0,97,0.00,,,0.00,weatherlink.com 1.10,2013-04-21 07:52:00,
2013-04-21 04:07:00,44.0,43.0,30.22,NW,317,0.0,0.0,97,0.00,,,0.00,weatherlink.com 1.10,2013-04-21 08:07:00,
2013-04-21 04:22:00,43.6,43.0,30.22,NW,317,0.0,0.0,97,0.00,,,0.00,weatherlink.com 1.10,2013-04-21 08:22:00,
2013-04-21 04:37:00,43.6,43.0,30.22,NW,317,0.0,0.0,98,0.00,,,0.00,weatherlink.com 1.10,2013-04-21 08:37:00,
2013-04-21 04:52:00,43.5,43.0,30.23,NW,317,0.0,0.0,98,0.00,,,0.00,weatherlink.com 1.10,2013-04-21 08:52:00,
2013-04-21 05:07:00,43.1,43.0,30.23,NW,317,0.0,0.0,98,0.00,,,0.00,weatherlink.com 1.10,2013-04-21 09:07:00,
2013-04-21 05:22:00,43.1,43.0,30.23,NW,317,0.0,0.0,98,0.00,,,0.00,weatherlink.com 1.10,2013-04-21 09:22:00,
2013-04-21 05:37:00,43.1,43.0,30.23,NW,317,0.0,0.0,98,0.00,,,0.00,weatherlink.com 1.10,2013-04-21 09:37:00,
2013-04-21 05:52:00,42.7,42.0,30.24,NW,317,0.0,0.0,98,0.00,,,0.00,weatherlink.com 1.10,2013-04-21 09:52:00,
2013-04-21 06:07:00,42.8,42.0,30.24,NW,318,0.0,0.0,98,0.00,,,0.00,weatherlink.com 1.10,2013-04-21 10:07:00,
2013-04-21 06:22:00,42.6,42.0,30.25,NW,317,0.0,1.0,98,0.00,,,0.00,weatherlink.com 1.10,2013-04-21 10:22:00,
2013-04-21 06:37:00,42.3,42.0,30.25,NW,318,0.0,0.0,98,0.00,,,0.00,weatherlink.com 1.10,2013-04-21 10:37:00,
2013-04-21 06:52:00,41.9,41.0,30.26,NW,317,0.0,0.0,98,0.00,,,0.00,weatherlink.com 1.10,2013-04-21 10:52:00,
2013-04-21 07:07:00,42.1,42.0,30.27,NW,317,0.0,0.0,98,0.01,,,0.01,weatherlink.com 1.10,2013-04-21 11:07:00,
2013-04-21 07:22:00,42.5,42.0,30.27,NW,317,0.0,0.0,98,0.01,,,0.01,weatherlink.com 1.10,2013-04-21 11:22:00,
2013-04-21 07:37:00,43.2,43.0,30.27,NW,317,0.0,0.0,98,0.01,,,0.01,weatherlink.com 1.10,2013-04-21 11:37:00,
2013-04-21 07:52:00,44.3,44.0,30.27,NW,313,0.0,1.0,98,0.00,,,0.01,weatherlink.com 1.10,2013-04-21 11:52:00,
2013-04-21 08:08:00,46.7,46.0,30.27,NW,313,0.0,0.0,98,0.00,,,0.01,weatherlink.com 1.10,2013-04-21 12:08:00,
2013-04-21 08:23:00,47.9,47.0,30.27,NW,307,0.0,2.0,98,0.00,,,0.01,weatherlink.com 1.10,2013-04-21 12:23:00,
2013-04-21 08:38:00,49.7,49.0,30.27,NNW,340,0.0,2.0,98,0.00,,,0.01,weatherlink.com 1.10,2013-04-21 12:38:00,
2013-04-21 08:53:00,51.1,50.0,30.27,North,353,1.0,4.0,97,0.00,,,0.01,weatherlink.com 1.10,2013-04-21 12:53:00,
2013-04-21 09:08:00,53.3,51.0,30.27,NNE,22,3.0,4.0,91,0.00,,,0.01,weatherlink.com 1.10,2013-04-21 13:08:00,
2013-04-21 09:23:00,55.4,52.0,30.27,North,353,1.0,6.0,87,0.00,,,0.01,weatherlink.com 1.10,2013-04-21 13:23:00,
2013-04-21 09:38:00,57.4,52.0,30.27,NE,36,3.0,5.0,82,0.00,,,0.01,weatherlink.com 1.10,2013-04-21 13:38:00,
2013-04-21 09:53:00,58.7,51.0,30.27,NNE,18,2.0,10.0,75,0.00,,,0.01,weatherlink.com 1.10,2013-04-21 13:53:00,
2013-04-21 10:08:00,60.1,51.0,30.28,NE,36,7.0,8.0,72,0.00,,,0.01,weatherlink.com 1.10,2013-04-21 14:08:00,
2013-04-21 10:23:00,61.3,51.0,30.28,WNW,287,3.0,10.0,69,0.00,,,0.01,weatherlink.com 1.10,2013-04-21 14:23:00,
2013-04-21 10:38:00,62.8,52.0,30.28,WSW,244,4.0,9.0,68,0.00,,,0.01,weatherlink.com 1.10,2013-04-21 14:38:00,
2013-04-21 10:53:00,64.6,53.0,30.28,SSW,195,0.0,8.0,67,0.00,,,0.01,weatherlink.com 1.10,2013-04-21 14:53:00,
2013-04-21 11:08:00,64.8,52.0,30.28,SSE,160,5.0,12.0,63,0.00,,,0.01,weatherlink.com 1.10,2013-04-21 15:08:00,
2013-04-21 11:23:00,65.8,53.0,30.28,NNE,17,4.0,9.0,64,0.00,,,0.01,weatherlink.com 1.10,2013-04-21 15:23:00,
2013-04-21 11:38:00,66.4,53.0,30.28,ENE,69,6.0,16.0,62,0.00,,,0.01,weatherlink.com 1.10,2013-04-21 15:38:00,
2013-04-21 11:53:00,66.7,54.0,30.29,SSE,156,4.0,16.0,63,0.00,,,0.01,weatherlink.com 1.10,2013-04-21 15:53:00,
2013-04-21 12:08:00,68.1,54.0,30.29,ESE,113,3.0,12.0,62,0.00,,,0.01,weatherlink.com 1.10,2013-04-21 16:08:00,
2013-04-21 12:23:00,68.3,55.0,30.29,East,95,8.0,10.0,63,0.00,,,0.01,weatherlink.com 1.10,2013-04-21 16:23:00,
2013-04-21 12:38:00,67.5,54.0,30.29,ESE,121,1.0,11.0,63,0.00,,,0.01,weatherlink.com 1.10,2013-04-21 16:38:00,
2013-04-21 12:53:00,69.8,56.0,30.29,NNW,333,3.0,8.0,62,0.00,,,0.01,weatherlink.com 1.10,2013-04-21 16:53:00,
2013-04-21 13:09:00,69.2,55.0,30.28,NNW,332,2.0,7.0,61,0.00,,,0.01,weatherlink.com 1.10,2013-04-21 17:09:00,
2013-04-21 13:24:00,69.3,56.0,30.28,ENE,67,2.0,11.0,62,0.00,,,0.01,weatherlink.com 1.10,2013-04-21 17:24:00,
2013-04-21 13:39:00,69.8,55.0,30.27,NW,321,2.0,9.0,60,0.00,,,0.01,weatherlink.com 1.10,2013-04-21 17:39:00,
2013-04-21 13:54:00,70.2,56.0,30.27,NNW,348,1.0,4.0,61,0.00,,,0.01,weatherlink.com 1.10,2013-04-21 17:54:00,
2013-04-21 14:09:00,70.2,56.0,30.27,East,98,4.0,11.0,60,0.00,,,0.01,weatherlink.com 1.10,2013-04-21 18:09:00,
2013-04-21 14:24:00,70.2,55.0,30.27,East,99,8.0,13.0,58,0.00,,,0.01,weatherlink.com 1.10,2013-04-21 18:24:00,
2013-04-21 14:39:00,69.8,55.0,30.27,ESE,111,4.0,10.0,60,0.00,,,0.01,weatherlink.com 1.10,2013-04-21 18:39:00,
2013-04-21 14:54:00,70.9,55.0,30.26,ESE,121,6.0,11.0,57,0.00,,,0.01,weatherlink.com 1.10,2013-04-21 18:54:00,
2013-04-21 15:09:00,71.1,55.0,30.25,SE,146,3.0,9.0,58,0.00,,,0.01,weatherlink.com 1.10,2013-04-21 19:09:00,
2013-04-21 15:24:00,70.7,56.0,30.24,NNW,336,6.0,12.0,60,0.00,,,0.01,weatherlink.com 1.10,2013-04-21 19:24:00,
2013-04-21 15:39:00,70.5,56.0,30.24,ESE,107,3.0,10.0,61,0.00,,,0.01,weatherlink.com 1.10,2013-04-21 19:39:00,
2013-04-21 15:54:00,71.4,56.0,30.23,NW,326,2.0,9.0,58,0.00,,,0.01,weatherlink.com 1.10,2013-04-21 19:54:00,
2013-04-21 16:09:00,70.7,55.0,30.23,NNW,347,4.0,9.0,58,0.00,,,0.01,weatherlink.com 1.10,2013-04-21 20:09:00,
2013-04-21 16:24:00,70.8,57.0,30.23,SE,126,3.0,11.0,62,0.00,,,0.01,weatherlink.com 1.10,2013-04-21 20:24:00,
2013-04-21 16:39:00,70.2,56.0,30.21,NE,36,8.0,13.0,62,0.00,,,0.01,weatherlink.com 1.10,2013-04-21 20:39:00,
2013-04-21 16:54:00,69.6,56.0,30.21,ENE,78,6.0,12.0,62,0.00,,,0.01,weatherlink.com 1.10,2013-04-21 20:54:00,
2013-04-21 17:09:00,70.2,57.0,30.21,North,11,4.0,11.0,63,0.00,,,0.01,weatherlink.com 1.10,2013-04-21 21:09:00,
2013-04-21 17:24:00,68.4,56.0,30.22,NNE,29,3.0,13.0,65,0.00,,,0.01,weatherlink.com 1.10,2013-04-21 21:24:00,
2013-04-21 17:39:00,67.8,56.0,30.22,ESE,112,3.0,7.0,67,0.00,,,0.01,weatherlink.com 1.10,2013-04-21 21:39:00,
2013-04-21 17:54:00,66.6,56.0,30.23,ESE,112,1.0,13.0,69,0.00,,,0.01,weatherlink.com 1.10,2013-04-21 21:54:00,
2013-04-21 18:09:00,66.4,56.0,30.23,NNW,327,2.0,8.0,69,0.00,,,0.01,weatherlink.com 1.10,2013-04-21 22:09:00,
2013-04-21 18:24:00,65.5,55.0,30.23,NNW,330,6.0,9.0,69,0.00,,,0.01,weatherlink.com 1.10,2013-04-21 22:24:00,
2013-04-21 18:39:00,65.0,55.0,30.24,East,99,5.0,9.0,70,0.00,,,0.01,weatherlink.com 1.10,2013-04-21 22:39:00,
2013-04-21 18:54:00,64.6,55.0,30.26,NNW,333,2.0,8.0,71,0.00,,,0.01,weatherlink.com 1.10,2013-04-21 22:54:00,
2013-04-21 19:09:00,64.0,55.0,30.27,ENE,69,11.0,12.0,72,0.00,,,0.01,weatherlink.com 1.10,2013-04-21 23:09:00,
2013-04-21 19:24:00,63.4,55.0,30.27,NW,309,1.0,8.0,74,0.00,,,0.01,weatherlink.com 1.10,2013-04-21 23:24:00,
2013-04-21 19:39:00,63.1,55.0,30.27,North,6,2.0,5.0,75,0.00,,,0.01,weatherlink.com 1.10,2013-04-21 23:39:00,
2013-04-21 19:54:00,62.8,55.0,30.26,ENE,59,2.0,7.0,76,0.00,,,0.01,weatherlink.com 1.10,2013-04-21 23:54:00,
2013-04-21 20:09:00,62.2,55.0,30.26,North,7,0.0,10.0,78,0.00,,,0.01,weatherlink.com 1.10,2013-04-22 00:09:00,
2013-04-21 20:24:00,62.0,55.0,30.27,WNW,289,0.0,4.0,78,0.00,,,0.01,weatherlink.com 1.10,2013-04-22 00:24:00,
2013-04-21 20:39:00,62.0,55.0,30.28,NNE,29,4.0,6.0,77,0.00,,,0.01,weatherlink.com 1.10,2013-04-22 00:39:00,
2013-04-21 20:54:00,62.0,54.0,30.28,SSE,161,5.0,9.0,75,0.00,,,0.01,weatherlink.com 1.10,2013-04-22 00:54:00,
2013-04-21 21:09:00,61.9,54.0,30.29,NNW,343,2.0,6.0,76,0.00,,,0.01,weatherlink.com 1.10,2013-04-22 01:09:00,
2013-04-21 21:24:00,61.4,54.0,30.29,NNE,18,0.0,9.0,77,0.00,,,0.01,weatherlink.com 1.10,2013-04-22 01:24:00,
2013-04-21 21:39:00,60.2,54.0,30.28,West,279,1.0,10.0,80,0.00,,,0.01,weatherlink.com 1.10,2013-04-22 01:39:00,
2013-04-21 21:54:00,59.4,54.0,30.28,North,357,0.0,6.0,83,0.00,,,0.01,weatherlink.com 1.10,2013-04-22 01:54:00,
2013-04-21 22:09:00,59.4,54.0,30.28,WNW,282,0.0,7.0,83,0.00,,,0.01,weatherlink.com 1.10,2013-04-22 02:09:00,
2013-04-21 22:24:00,59.4,54.0,30.29,NNW,329,2.0,7.0,81,0.00,,,0.01,weatherlink.com 1.10,2013-04-22 02:24:00,
2013-04-21 22:39:00,58.9,54.0,30.27,North,11,1.0,6.0,85,0.01,,,0.02,weatherlink.com 1.10,2013-04-22 02:39:00,
2013-04-21 22:54:00,57.2,54.0,30.27,NNW,347,0.0,6.0,89,0.02,,,0.03,weatherlink.com 1.10,2013-04-22 02:54:00,
2013-04-21 23:09:00,56.7,54.0,30.25,NW,316,0.0,3.0,91,0.02,,,0.03,weatherlink.com 1.10,2013-04-22 03:09:00,
2013-04-21 23:24:00,56.5,54.0,30.25,NE,43,1.0,3.0,90,0.02,,,0.03,weatherlink.com 1.10,2013-04-22 03:24:00,
2013-04-21 23:39:00,56.5,53.0,30.25,SE,146,2.0,4.0,89,0.00,,,0.03,weatherlink.com 1.10,2013-04-22 03:39:00,
2013-04-21 23:55:00,56.7,53.0,30.25,SSE,158,5.0,5.0,87,0.00,,,0.03,weatherlink.com 1.10,2013-04-22 03:55:00,